Terminal Aerodrome Forecast
Issued by NWS

Home | Current Version | Previous Version | Graphics & Text | Print | Product List | Glossary On
Versions: 1 2 3 4 5 6 7 8 9 10 11 12 13 14 15 16 17 18 19 20 21
401
FTUS43 KGRB 261558 AAB
TAFMTW
TAF AMD
KMTW 261558Z 2616/2712 22013G22KT P6SM VCSH BKN060
      TEMPO 2616/2617 1SM -SN SCT006 OVC040
     FM270000 24011KT P6SM SCT040 BKN120
     FM270400 26004KT P6SM SCT050 BKN090=

USA.gov is the U.S. government's official web portal to all federal, state and local government web resources and services.